createdAt,value
2018-06-30T00:02:23.360Z,19.90
2018-06-30T00:04:53.324Z,20.00
2018-06-30T00:07:23.489Z,19.80
2018-06-30T00:09:52.967Z,19.80
2018-06-30T00:12:22.185Z,19.60
2018-06-30T00:14:51.256Z,19.60
2018-06-30T00:17:20.574Z,19.40
2018-06-30T00:19:50.002Z,19.30
2018-06-30T00:22:19.300Z,19.30
2018-06-30T00:24:48.456Z,19.30
2018-06-30T00:27:22.715Z,19.20
2018-06-30T00:29:52.007Z,19.20
2018-06-30T00:32:21.210Z,19.20
2018-06-30T00:34:50.624Z,19.00
2018-06-30T00:37:20.507Z,19.00
2018-06-30T00:39:49.769Z,19.10
2018-06-30T00:42:19.317Z,19.00
2018-06-30T00:44:48.713Z,19.00
2018-06-30T00:47:17.946Z,19.00
2018-06-30T00:49:47.158Z,19.00
2018-06-30T00:52:16.328Z,19.00
2018-06-30T00:54:45.504Z,19.00
2018-06-30T00:57:14.664Z,19.00
2018-06-30T00:59:43.774Z,18.90
2018-06-30T01:02:13.366Z,19.00
2018-06-30T01:04:42.690Z,18.90
2018-06-30T01:07:11.851Z,18.90
2018-06-30T01:09:40.978Z,18.90
2018-06-30T01:12:10.172Z,18.80
2018-06-30T01:14:39.571Z,18.70
2018-06-30T01:17:08.924Z,18.60
2018-06-30T01:19:38.043Z,18.40
2018-06-30T01:22:07.452Z,18.30
2018-06-30T01:24:36.562Z,18.20
2018-06-30T01:27:05.924Z,18.00
2018-06-30T01:29:35.333Z,17.90
2018-06-30T01:32:04.424Z,17.90
2018-06-30T01:34:33.702Z,17.80
2018-06-30T01:37:03.080Z,17.90
2018-06-30T01:39:32.395Z,17.70
2018-06-30T01:42:01.564Z,17.70
2018-06-30T01:44:30.626Z,17.80
2018-06-30T01:46:59.836Z,17.60
2018-06-30T01:49:28.993Z,17.60
2018-06-30T01:51:58.250Z,17.50
2018-06-30T01:54:27.440Z,17.30
2018-06-30T01:56:56.730Z,17.30
2018-06-30T01:59:26.002Z,17.30
2018-06-30T02:01:55.546Z,17.20
2018-06-30T02:04:24.624Z,17.10
2018-06-30T02:06:53.931Z,17.10
2018-06-30T02:09:23.135Z,17.00
2018-06-30T02:11:52.289Z,16.80
2018-06-30T02:14:21.332Z,16.70
2018-06-30T02:16:50.482Z,16.70
2018-06-30T02:19:19.603Z,16.60
2018-06-30T02:21:48.797Z,16.60
2018-06-30T02:24:18.043Z,16.70
2018-06-30T02:26:47.088Z,16.70
2018-06-30T02:29:16.174Z,16.60
2018-06-30T02:31:45.163Z,16.50
2018-06-30T02:34:14.634Z,16.40
2018-06-30T02:36:43.912Z,16.30
2018-06-30T02:39:13.295Z,16.20
2018-06-30T02:41:42.548Z,16.20
2018-06-30T02:44:11.996Z,16.10
2018-06-30T02:46:41.386Z,16.10
2018-06-30T02:49:10.699Z,16.10
2018-06-30T02:51:39.792Z,16.20
2018-06-30T02:54:09.044Z,16.30
2018-06-30T02:56:39.058Z,16.20
2018-06-30T02:59:09.070Z,16.20
2018-06-30T03:01:38.717Z,16.10
2018-06-30T03:04:08.477Z,16.10
2018-06-30T03:06:37.900Z,16.00
2018-06-30T03:09:09.938Z,15.90
2018-06-30T03:11:40.281Z,15.80
2018-06-30T03:14:10.288Z,15.60
2018-06-30T03:16:40.301Z,15.60
2018-06-30T03:19:10.374Z,15.40
2018-06-30T03:21:40.509Z,15.40
2018-06-30T03:24:10.401Z,15.30
2018-06-30T03:26:40.430Z,15.20
2018-06-30T03:29:10.420Z,15.10
2018-06-30T03:31:40.607Z,15.10
2018-06-30T03:34:10.681Z,15.10
2018-06-30T03:36:40.732Z,15.10
2018-06-30T03:39:11.678Z,15.00
2018-06-30T03:41:42.001Z,15.00
2018-06-30T03:44:12.220Z,15.00
2018-06-30T03:46:42.475Z,14.90
2018-06-30T03:49:13.000Z,14.80
2018-06-30T03:51:43.016Z,14.70
2018-06-30T03:54:12.752Z,14.70
2018-06-30T03:56:42.753Z,14.60
2018-06-30T03:59:12.882Z,14.50
2018-06-30T04:01:43.096Z,14.60
2018-06-30T04:04:13.287Z,14.60
2018-06-30T04:06:43.173Z,14.70
2018-06-30T04:09:14.009Z,14.60
2018-06-30T04:11:43.984Z,14.50
2018-06-30T04:14:14.432Z,14.50
2018-06-30T04:16:44.566Z,14.50
2018-06-30T04:19:16.016Z,14.50
2018-06-30T04:21:46.876Z,14.50
2018-06-30T04:24:16.978Z,14.40
2018-06-30T04:26:47.870Z,14.40
2018-06-30T04:29:18.446Z,14.50
2018-06-30T04:31:48.800Z,14.60
2018-06-30T04:34:18.806Z,14.60
2018-06-30T04:36:48.779Z,14.60
2018-06-30T04:39:18.904Z,14.80
2018-06-30T04:41:49.641Z,14.80
2018-06-30T04:44:20.294Z,14.90
2018-06-30T04:46:50.739Z,14.90
2018-06-30T04:49:20.827Z,15.10
2018-06-30T04:51:50.759Z,15.10
2018-06-30T04:54:20.775Z,15.10
2018-06-30T04:56:50.644Z,15.20
2018-06-30T04:59:20.573Z,15.30
2018-06-30T05:01:50.663Z,15.30
2018-06-30T05:04:21.314Z,15.30
2018-06-30T05:06:50.886Z,15.50
2018-06-30T05:09:20.750Z,15.60
2018-06-30T05:11:50.505Z,15.60
2018-06-30T05:14:20.566Z,15.80
2018-06-30T05:16:51.163Z,15.90
2018-06-30T05:19:21.010Z,16.00
2018-06-30T05:21:50.535Z,16.00
2018-06-30T05:24:20.525Z,16.10
2018-06-30T05:26:50.232Z,16.10
2018-06-30T05:29:20.412Z,16.40
2018-06-30T05:31:50.337Z,16.50
2018-06-30T05:34:20.501Z,16.50
2018-06-30T05:36:50.647Z,16.60
2018-06-30T05:39:20.504Z,16.80
2018-06-30T05:41:50.492Z,16.70
2018-06-30T05:44:20.446Z,16.70
2018-06-30T05:46:50.767Z,16.80
2018-06-30T05:49:20.489Z,16.60
2018-06-30T05:51:50.379Z,17.00
2018-06-30T05:54:20.486Z,17.10
2018-06-30T05:56:50.569Z,17.40
2018-06-30T05:59:20.486Z,17.50
2018-06-30T06:01:50.345Z,17.50
2018-06-30T06:04:20.352Z,17.40
2018-06-30T06:06:50.287Z,17.70
2018-06-30T06:09:20.451Z,17.70
2018-06-30T06:11:50.351Z,17.70
2018-06-30T06:14:20.747Z,17.90
2018-06-30T06:16:50.392Z,18.00
2018-06-30T06:19:20.557Z,18.10
2018-06-30T06:21:50.741Z,18.20
2018-06-30T06:24:20.639Z,18.30
2018-06-30T06:26:50.709Z,18.10
2018-06-30T06:29:20.553Z,18.10
2018-06-30T06:31:50.444Z,18.40
2018-06-30T06:34:20.245Z,18.40
2018-06-30T06:36:50.333Z,18.50
2018-06-30T06:39:20.165Z,18.80
2018-06-30T06:41:50.046Z,18.70
2018-06-30T06:44:20.229Z,19.00
2018-06-30T06:46:50.127Z,19.10
2018-06-30T06:49:20.281Z,19.20
2018-06-30T06:51:50.179Z,19.40
2018-06-30T06:54:20.215Z,19.50
2018-06-30T06:56:50.626Z,19.60
2018-06-30T06:59:20.423Z,19.80
2018-06-30T07:01:50.364Z,19.80
2018-06-30T07:04:20.337Z,20.00
2018-06-30T07:06:50.256Z,20.20
2018-06-30T07:09:20.177Z,19.70
2018-06-30T07:11:50.228Z,19.90
2018-06-30T07:14:20.460Z,19.80
2018-06-30T07:16:50.846Z,20.30
2018-06-30T07:19:20.822Z,20.20
2018-06-30T07:21:50.422Z,20.40
2018-06-30T07:24:20.355Z,20.50
2018-06-30T07:26:50.513Z,20.70
2018-06-30T07:29:20.162Z,20.80
2018-06-30T07:31:50.344Z,20.90
2018-06-30T07:34:20.392Z,20.90
2018-06-30T07:36:50.472Z,21.10
2018-06-30T07:39:20.362Z,21.20
2018-06-30T07:41:49.855Z,21.20
2018-06-30T07:44:19.732Z,21.20
2018-06-30T07:46:49.520Z,21.30
2018-06-30T07:49:19.359Z,21.50
2018-06-30T07:51:49.556Z,21.40
2018-06-30T07:54:19.903Z,21.50
2018-06-30T07:56:50.288Z,21.50
2018-06-30T07:59:20.510Z,21.30
2018-06-30T08:01:50.397Z,21.60
2018-06-30T08:04:20.517Z,21.60
2018-06-30T08:06:50.154Z,21.70
2018-06-30T08:09:20.244Z,21.90
2018-06-30T08:11:49.824Z,22.00
2018-06-30T08:14:19.761Z,22.10
2018-06-30T08:16:49.573Z,22.00
2018-06-30T08:19:19.523Z,22.00
2018-06-30T08:21:49.711Z,22.30
2018-06-30T08:24:19.664Z,22.20
2018-06-30T08:26:49.522Z,22.30
2018-06-30T08:29:19.428Z,22.40
2018-06-30T08:31:49.525Z,22.70
2018-06-30T08:34:19.294Z,22.50
2018-06-30T08:36:49.108Z,22.60
2018-06-30T08:39:19.346Z,22.80
2018-06-30T08:41:49.537Z,22.90
2018-06-30T08:44:19.655Z,23.00
2018-06-30T08:46:49.783Z,22.80
2018-06-30T08:49:19.534Z,23.00
2018-06-30T08:51:49.440Z,23.20
2018-06-30T08:54:19.259Z,23.20
2018-06-30T08:56:49.408Z,23.20
2018-06-30T08:59:19.340Z,23.30
2018-06-30T09:01:49.301Z,23.50
2018-06-30T09:04:19.178Z,23.40
2018-06-30T09:06:49.112Z,23.40
2018-06-30T09:09:19.280Z,23.60
2018-06-30T09:11:48.654Z,23.50
2018-06-30T09:14:18.190Z,23.60
2018-06-30T09:16:47.914Z,23.60
2018-06-30T09:19:17.860Z,23.60
2018-06-30T09:21:47.968Z,23.40
2018-06-30T09:24:17.882Z,23.40
2018-06-30T09:26:47.551Z,23.50
2018-06-30T09:29:17.964Z,23.40
2018-06-30T09:31:47.687Z,23.50
2018-06-30T09:34:17.230Z,23.40
2018-06-30T09:36:46.755Z,23.40
2018-06-30T09:39:16.555Z,23.60
2018-06-30T09:41:46.352Z,23.70
2018-06-30T09:44:16.275Z,23.50
2018-06-30T09:46:45.826Z,23.70
2018-06-30T09:49:15.795Z,23.60
2018-06-30T09:51:45.612Z,23.80
2018-06-30T09:54:15.370Z,23.90
2018-06-30T09:56:45.439Z,24.00
2018-06-30T09:59:15.763Z,23.80
2018-06-30T10:01:45.682Z,23.90
2018-06-30T10:04:15.298Z,24.00
2018-06-30T10:06:45.418Z,24.10
2018-06-30T10:09:15.392Z,23.90
2018-06-30T10:11:45.328Z,24.10
2018-06-30T10:14:15.360Z,24.20
2018-06-30T10:16:45.366Z,24.30
2018-06-30T10:19:15.637Z,24.20
2018-06-30T10:21:45.272Z,24.30
2018-06-30T10:24:15.423Z,24.40
2018-06-30T10:26:45.323Z,24.60
2018-06-30T10:29:15.292Z,24.70
2018-06-30T10:31:45.405Z,24.70
2018-06-30T10:34:15.241Z,24.70
2018-06-30T10:36:45.160Z,24.70
2018-06-30T10:39:15.344Z,24.60
2018-06-30T10:41:45.361Z,24.50
2018-06-30T10:44:15.478Z,24.20
2018-06-30T10:46:45.504Z,24.10
2018-06-30T10:49:15.393Z,24.30
2018-06-30T10:51:45.363Z,24.30
2018-06-30T10:54:15.442Z,24.20
2018-06-30T10:56:45.375Z,24.30
2018-06-30T10:59:15.196Z,24.40
2018-06-30T11:01:45.387Z,24.30
2018-06-30T11:04:15.342Z,24.40
2018-06-30T11:06:45.406Z,24.60
2018-06-30T11:09:15.449Z,24.50
2018-06-30T11:11:45.367Z,24.50
2018-06-30T11:14:15.313Z,24.70
2018-06-30T11:16:45.191Z,24.60
2018-06-30T11:19:15.290Z,24.50
2018-06-30T11:21:45.163Z,24.80
2018-06-30T11:24:14.566Z,24.70
2018-06-30T11:26:44.321Z,24.70
2018-06-30T11:29:14.200Z,24.90
2018-06-30T11:31:44.410Z,24.70
2018-06-30T11:34:14.244Z,25.00
2018-06-30T11:36:43.711Z,25.20
2018-06-30T11:39:14.136Z,25.20
2018-06-30T11:41:44.246Z,25.40
2018-06-30T11:44:14.450Z,25.20
2018-06-30T11:46:44.657Z,25.10
2018-06-30T11:49:14.850Z,25.00
2018-06-30T11:51:44.912Z,24.90
2018-06-30T11:54:14.812Z,25.00
2018-06-30T11:56:45.054Z,25.20
2018-06-30T11:59:14.816Z,24.90
2018-06-30T12:01:44.686Z,24.70
2018-06-30T12:04:15.160Z,24.90
2018-06-30T12:06:44.662Z,25.00
2018-06-30T12:09:14.487Z,25.20
2018-06-30T12:11:44.314Z,25.20
2018-06-30T12:14:14.230Z,25.20
2018-06-30T12:16:44.177Z,25.50
2018-06-30T12:19:14.166Z,25.20
2018-06-30T12:21:44.222Z,25.30
2018-06-30T12:24:13.662Z,25.50
2018-06-30T12:26:43.309Z,25.30
2018-06-30T12:29:13.038Z,25.30
2018-06-30T12:31:43.060Z,25.20
2018-06-30T12:34:12.964Z,25.30
2018-06-30T12:36:42.874Z,25.30
2018-06-30T12:39:13.010Z,25.30
2018-06-30T12:41:42.880Z,25.50
2018-06-30T12:44:12.947Z,25.30
2018-06-30T12:46:42.885Z,25.40
2018-06-30T12:49:12.808Z,25.30
2018-06-30T12:51:42.843Z,25.20
2018-06-30T12:54:12.788Z,25.10
2018-06-30T12:56:42.999Z,25.00
2018-06-30T12:59:12.929Z,25.20
2018-06-30T13:01:42.795Z,25.10
2018-06-30T13:04:12.975Z,25.30
2018-06-30T13:06:42.829Z,25.40
2018-06-30T13:09:13.488Z,25.50
2018-06-30T13:11:43.327Z,25.40
2018-06-30T13:14:13.329Z,25.50
2018-06-30T13:16:43.184Z,25.50
2018-06-30T13:19:13.381Z,25.80
2018-06-30T13:21:43.304Z,25.70
2018-06-30T13:24:13.204Z,25.30
2018-06-30T13:26:43.293Z,25.60
2018-06-30T13:29:13.194Z,25.60
2018-06-30T13:31:43.594Z,25.70
2018-06-30T13:34:13.614Z,25.60
2018-06-30T13:36:43.548Z,25.70
2018-06-30T13:39:15.823Z,25.80
2018-06-30T13:41:45.521Z,25.80
2018-06-30T13:44:15.444Z,26.00
2018-06-30T13:46:45.489Z,26.00
2018-06-30T13:49:15.453Z,26.00
2018-06-30T13:51:45.593Z,25.90
2018-06-30T13:54:15.446Z,26.00
2018-06-30T13:56:45.444Z,26.00
2018-06-30T13:59:15.326Z,25.90
2018-06-30T14:01:45.483Z,26.20
2018-06-30T14:04:15.764Z,26.20
2018-06-30T14:06:45.549Z,26.10
2018-06-30T14:09:15.436Z,25.80
2018-06-30T14:11:45.970Z,25.80
2018-06-30T14:14:15.873Z,26.00
2018-06-30T14:16:45.689Z,25.90
2018-06-30T14:19:15.734Z,25.80
2018-06-30T14:21:46.239Z,25.80
2018-06-30T14:24:15.951Z,25.80
2018-06-30T14:26:45.976Z,25.80
2018-06-30T14:29:15.781Z,25.70
2018-06-30T14:31:45.927Z,25.80
2018-06-30T14:34:17.365Z,25.90
2018-06-30T14:36:47.111Z,25.70
2018-06-30T14:39:17.471Z,25.70
2018-06-30T14:41:47.631Z,25.60
2018-06-30T14:44:22.513Z,25.60
2018-06-30T14:46:52.723Z,25.70
2018-06-30T14:49:22.976Z,25.80
2018-06-30T14:51:53.117Z,25.60
2018-06-30T14:54:22.969Z,25.70
2018-06-30T14:56:53.371Z,25.80
2018-06-30T14:59:23.162Z,25.80
2018-06-30T15:01:53.795Z,25.70
2018-06-30T15:04:23.379Z,25.80
2018-06-30T15:06:53.282Z,25.90
2018-06-30T15:09:23.882Z,25.80
2018-06-30T15:11:53.682Z,25.70
2018-06-30T15:14:23.720Z,25.80
2018-06-30T15:16:53.801Z,25.70
2018-06-30T15:19:23.494Z,25.70
2018-06-30T15:21:53.567Z,25.70
2018-06-30T15:24:23.547Z,25.80
2018-06-30T15:26:53.548Z,25.70
2018-06-30T15:29:23.763Z,25.90
2018-06-30T15:31:54.051Z,25.90
2018-06-30T15:34:23.871Z,25.90
2018-06-30T15:36:53.807Z,25.80
2018-06-30T15:39:23.520Z,25.90
2018-06-30T15:41:53.235Z,25.80
2018-06-30T15:44:23.003Z,25.80
2018-06-30T15:46:53.089Z,25.60
2018-06-30T15:49:22.937Z,25.80
2018-06-30T15:51:52.940Z,25.90
2018-06-30T15:54:23.121Z,26.00
2018-06-30T15:56:52.941Z,26.10
2018-06-30T15:59:23.019Z,26.00
2018-06-30T16:01:54.341Z,26.10
2018-06-30T16:04:24.275Z,25.80
2018-06-30T16:06:54.349Z,25.70
2018-06-30T16:09:24.573Z,25.60
2018-06-30T16:11:54.398Z,25.70
2018-06-30T16:14:24.396Z,25.70
2018-06-30T16:16:54.522Z,25.60
2018-06-30T16:19:24.702Z,25.60
2018-06-30T16:21:54.671Z,25.60
2018-06-30T16:24:24.283Z,25.50
2018-06-30T16:26:54.417Z,25.50
2018-06-30T16:29:24.901Z,25.40
2018-06-30T16:31:55.051Z,25.10
2018-06-30T16:34:25.223Z,25.20
2018-06-30T16:36:55.623Z,25.30
2018-06-30T16:39:25.511Z,25.10
2018-06-30T16:41:55.591Z,25.10
2018-06-30T16:44:26.133Z,25.10
2018-06-30T16:46:56.355Z,25.10
2018-06-30T16:49:25.867Z,25.10
2018-06-30T16:51:55.737Z,25.00
2018-06-30T16:54:25.805Z,25.00
2018-06-30T16:56:55.596Z,25.00
2018-06-30T16:59:26.139Z,25.00
2018-06-30T17:01:56.834Z,24.90
2018-06-30T17:04:27.159Z,24.80
2018-06-30T17:06:57.567Z,24.80
2018-06-30T17:09:27.590Z,24.60
2018-06-30T17:11:58.080Z,24.60
2018-06-30T17:14:27.969Z,24.60
2018-06-30T17:16:58.028Z,24.50
2018-06-30T17:19:28.093Z,24.40
2018-06-30T17:21:58.113Z,24.50
2018-06-30T17:24:28.151Z,24.40
2018-06-30T17:26:58.142Z,24.40
2018-06-30T17:29:28.280Z,24.30
2018-06-30T17:31:58.751Z,24.10
2018-06-30T17:34:29.769Z,24.20
2018-06-30T17:36:59.547Z,24.20
2018-06-30T17:39:29.733Z,24.20
2018-06-30T17:42:00.643Z,24.30
2018-06-30T17:44:30.739Z,24.30
2018-06-30T17:47:00.983Z,24.20
2018-06-30T17:49:31.005Z,24.10
2018-06-30T17:52:01.171Z,24.10
2018-06-30T17:54:31.827Z,23.90
2018-06-30T17:57:02.759Z,23.80
2018-06-30T17:59:33.237Z,23.80
2018-06-30T18:02:03.377Z,23.80
2018-06-30T18:04:33.542Z,23.80
2018-06-30T18:07:03.466Z,23.70
2018-06-30T18:09:33.424Z,23.80
2018-06-30T18:12:04.284Z,23.70
2018-06-30T18:14:34.635Z,23.60
2018-06-30T18:17:04.883Z,23.60
2018-06-30T18:19:35.430Z,23.60
2018-06-30T18:22:05.547Z,23.50
2018-06-30T18:24:37.545Z,23.40
2018-06-30T18:27:08.490Z,23.40
2018-06-30T18:29:38.795Z,23.40
2018-06-30T18:32:08.787Z,23.40
2018-06-30T18:34:38.700Z,23.40
2018-06-30T18:37:09.626Z,23.40
2018-06-30T18:39:40.069Z,23.30
2018-06-30T18:42:11.052Z,23.20
2018-06-30T18:44:42.159Z,23.10
2018-06-30T18:47:12.622Z,23.10
2018-06-30T18:49:42.984Z,23.00
2018-06-30T18:52:13.436Z,23.00
2018-06-30T18:54:44.285Z,23.00
2018-06-30T18:57:14.713Z,23.00
2018-06-30T18:59:45.202Z,23.00
2018-06-30T19:02:15.884Z,22.90
2018-06-30T19:04:46.063Z,22.90
2018-06-30T19:07:16.020Z,22.90
2018-06-30T19:09:48.095Z,22.90
2018-06-30T19:12:18.405Z,22.80
2018-06-30T19:14:48.659Z,22.80
2018-06-30T19:17:19.231Z,22.70
2018-06-30T19:19:49.625Z,22.60
2018-06-30T19:22:19.487Z,22.60
2018-06-30T19:24:49.570Z,22.60
2018-06-30T19:27:20.556Z,22.50
2018-06-30T19:29:51.625Z,22.50
2018-06-30T19:32:22.611Z,22.30
2018-06-30T19:34:53.065Z,22.30
2018-06-30T19:37:23.314Z,22.30
2018-06-30T19:39:54.308Z,22.20
2018-06-30T19:42:24.303Z,22.10
2018-06-30T19:44:54.680Z,22.10
2018-06-30T19:47:25.738Z,22.00
2018-06-30T19:49:55.829Z,22.00
2018-06-30T19:52:25.560Z,21.80
2018-06-30T19:54:55.152Z,21.80
2018-06-30T19:57:24.943Z,21.80
2018-06-30T19:59:54.389Z,21.70
2018-06-30T20:02:23.917Z,21.60
2018-06-30T20:04:53.521Z,21.60
2018-06-30T20:07:22.869Z,21.60
2018-06-30T20:09:52.031Z,21.60
2018-06-30T20:12:21.063Z,21.70
2018-06-30T20:14:50.142Z,21.60
2018-06-30T20:17:19.253Z,21.60
2018-06-30T20:19:48.716Z,21.60
2018-06-30T20:22:18.012Z,21.40
2018-06-30T20:24:47.213Z,21.40
2018-06-30T20:27:16.406Z,21.20
2018-06-30T20:29:45.604Z,21.20
2018-06-30T20:32:14.802Z,20.90
2018-06-30T20:34:43.872Z,21.00
2018-06-30T20:37:12.973Z,20.90
2018-06-30T20:39:42.264Z,20.90
2018-06-30T20:42:11.776Z,20.90
2018-06-30T20:44:41.100Z,20.90
2018-06-30T20:47:10.186Z,20.80
2018-06-30T20:49:39.513Z,20.70
2018-06-30T20:52:08.726Z,20.70
2018-06-30T20:54:38.048Z,20.70
2018-06-30T20:57:07.418Z,20.70
2018-06-30T20:59:36.610Z,20.70
2018-06-30T21:02:05.922Z,20.70
2018-06-30T21:04:35.248Z,20.70
2018-06-30T21:07:04.834Z,20.60
2018-06-30T21:09:34.914Z,20.60
2018-06-30T21:12:04.302Z,20.60
2018-06-30T21:14:33.609Z,20.70
2018-06-30T21:17:02.742Z,20.60
2018-06-30T21:19:31.842Z,20.60
2018-06-30T21:22:01.087Z,20.50
2018-06-30T21:24:30.296Z,20.40
2018-06-30T21:26:59.616Z,20.40
2018-06-30T21:29:28.900Z,20.40
2018-06-30T21:31:58.180Z,20.30
2018-06-30T21:34:27.636Z,20.20
2018-06-30T21:36:56.900Z,20.10
2018-06-30T21:39:26.398Z,20.20
2018-06-30T21:41:55.552Z,20.10
2018-06-30T21:44:24.816Z,20.00
2018-06-30T21:46:54.000Z,19.90
2018-06-30T21:49:23.302Z,19.80
2018-06-30T21:51:52.438Z,19.80
2018-06-30T21:54:21.640Z,19.80
2018-06-30T21:56:50.981Z,19.70
2018-06-30T21:59:20.174Z,19.60
2018-06-30T22:01:49.371Z,19.50
2018-06-30T22:04:18.619Z,19.50
2018-06-30T22:06:47.816Z,19.40
2018-06-30T22:09:17.126Z,19.40
2018-06-30T22:11:46.365Z,19.40
2018-06-30T22:14:15.558Z,19.20
2018-06-30T22:16:44.886Z,19.10
2018-06-30T22:19:14.216Z,19.10
2018-06-30T22:21:43.465Z,19.00
2018-06-30T22:24:12.585Z,18.90
2018-06-30T22:26:41.810Z,18.80
2018-06-30T22:29:11.203Z,18.80
2018-06-30T22:31:40.411Z,18.70
2018-06-30T22:34:09.666Z,18.60
2018-06-30T22:36:38.953Z,18.60
2018-06-30T22:39:10.708Z,18.50
2018-06-30T22:41:39.859Z,18.40
2018-06-30T22:44:09.409Z,18.30
2018-06-30T22:46:38.512Z,18.30
2018-06-30T22:49:07.836Z,18.30
2018-06-30T22:51:37.152Z,18.30
2018-06-30T22:54:07.119Z,18.20
2018-06-30T22:56:36.354Z,18.10
2018-06-30T22:59:05.519Z,18.10
2018-06-30T23:01:34.773Z,18.10
2018-06-30T23:04:04.289Z,18.10
2018-06-30T23:06:33.558Z,18.00
2018-06-30T23:09:02.778Z,18.00
2018-06-30T23:11:32.014Z,18.00
2018-06-30T23:14:01.425Z,17.90
2018-06-30T23:16:30.522Z,17.90
2018-06-30T23:18:59.768Z,17.80
2018-06-30T23:21:28.854Z,17.80
2018-06-30T23:23:57.993Z,17.80
2018-06-30T23:26:27.162Z,17.80
2018-06-30T23:28:56.278Z,17.70
2018-06-30T23:31:25.386Z,17.70
2018-06-30T23:33:54.652Z,17.70
2018-06-30T23:36:23.872Z,17.60
2018-06-30T23:38:53.318Z,17.50
2018-06-30T23:41:22.398Z,17.50
2018-06-30T23:43:51.698Z,17.50
2018-06-30T23:46:21.195Z,17.40
2018-06-30T23:48:50.534Z,17.30
2018-06-30T23:51:19.892Z,17.30
2018-06-30T23:53:49.334Z,17.30
2018-06-30T23:56:18.552Z,17.20
2018-06-30T23:58:47.742Z,17.20
